Time;durP1;ratioP1;P1;durP2;ratioP2;P2;SDS_P1;SDS_P2;PMS_P1;PMS_P2;Temp;Humidity;BMP_temperature;BMP_pressure;BME280_temperature;BME280_humidity;BME280_pressure;Samples;Min_cycle;Max_cycle;Signal;HPM_P1;HPM_P2
2022/01/12 00:01:05;;;;;;;;;79.00;60.67;;;;;-142.59;100.00;56100.38;4896450;28;49930;-68
2022/01/12 00:03:34;;;;;;;;;71.33;54.00;;;;;-142.59;100.00;56100.38;4913965;28;49761;-68
2022/01/12 00:06:01;;;;;;;;;75.00;60.67;;;;;-142.59;100.00;56100.38;4913462;28;49685;-69
2022/01/12 00:08:26;;;;;;;;;71.25;55.75;;;;;-142.59;100.00;56100.38;4913717;28;49718;-68
2022/01/12 00:10:51;;;;;;;;;76.50;58.75;;;;;-142.59;100.00;56100.38;4896231;28;49867;-68
2022/01/12 00:13:17;;;;;;;;;81.75;60.25;;;;;-142.59;100.00;56100.38;4896434;28;49997;-68
2022/01/12 00:15:42;;;;;;;;;73.00;59.25;;;;;-142.59;100.00;56100.38;4913490;28;49783;-69
2022/01/12 00:18:08;;;;;;;;;69.00;58.50;;;;;-142.59;100.00;56100.38;4896206;28;49897;-69
2022/01/12 00:20:33;;;;;;;;;74.75;59.75;;;;;-142.59;100.00;56100.38;4913284;28;49884;-69
2022/01/12 00:22:59;;;;;;;;;73.00;53.00;;;;;-142.59;100.00;56100.38;4895868;28;50152;-68
2022/01/12 00:25:31;;;;;;;;;78.67;57.00;;;;;-142.59;100.00;56100.38;4913401;28;50638;-68
2022/01/12 00:33:25;;;;;;;;;76.00;58.25;;;;;-142.59;100.00;56100.38;4913588;28;49882;-68
2022/01/12 00:35:52;;;;;;;;;72.67;56.67;;;;;-142.59;100.00;56100.38;4913194;28;49772;-68
2022/01/12 00:38:20;;;;;;;;;73.50;57.50;;;;;-142.59;100.00;56100.38;4913372;28;49747;-68
2022/01/12 00:40:49;;;;;;;;;79.25;62.25;;;;;-142.59;100.00;56100.38;4913255;28;49762;-68
2022/01/12 00:43:16;;;;;;;;;73.25;56.25;;;;;-142.59;100.00;56100.38;4913036;28;50128;-68
2022/01/12 00:45:43;;;;;;;;;78.25;57.25;;;;;-142.59;100.00;56100.38;4912844;28;50917;-69
2022/01/12 00:48:13;;;;;;;;;69.00;53.75;;;;;-142.59;100.00;56100.38;4895956;28;49704;-70
2022/01/12 00:50:39;;;;;;;;;77.50;59.25;;;;;-142.59;100.00;56100.38;4913051;28;49745;-69
2022/01/12 00:53:05;;;;;;;;;70.50;54.25;;;;;-142.59;100.00;56100.38;4913412;28;49749;-68
2022/01/12 00:55:31;;;;;;;;;81.25;59.25;;;;;-142.59;100.00;56100.38;4913009;28;50911;-68
2022/01/12 00:57:58;;;;;;;;;74.00;56.50;;;;;-142.59;100.00;56100.38;4912641;28;49519;-68
2022/01/12 01:00:26;;;;;;;;;77.00;59.67;;;;;-142.59;100.00;56100.38;4912787;28;49768;-68
2022/01/12 01:02:53;;;;;;;;;76.25;59.50;;;;;-142.59;100.00;56100.38;4913148;28;49832;-69
2022/01/12 01:05:21;;;;;;;;;70.00;57.25;;;;;-142.59;100.00;56100.38;4912855;28;50759;-68
2022/01/12 01:07:47;;;;;;;;;79.50;59.75;;;;;-142.59;100.00;56100.38;4895660;28;49723;-68
2022/01/12 01:10:19;;;;;;;;;76.25;57.75;;;;;-142.59;100.00;56100.38;4895634;28;49945;-68
2022/01/12 01:12:46;;;;;;;;;77.25;57.25;;;;;-142.59;100.00;56100.38;4913033;28;50190;-68
2022/01/12 01:15:15;;;;;;;;;78.00;59.00;;;;;-142.59;100.00;56100.38;4912569;28;50976;-69
2022/01/12 01:25:37;;;;;;;;;81.00;59.25;;;;;-142.59;100.00;56100.38;4912564;28;50161;-68
2022/01/12 01:28:05;;;;;;;;;75.67;60.00;;;;;-142.59;100.00;56100.38;4912453;28;49850;-68
2022/01/12 01:30:32;;;;;;;;;75.33;59.00;;;;;-142.59;100.00;56100.38;4912465;28;51152;-68
2022/01/12 01:33:04;;;;;;;;;78.50;60.75;;;;;-142.59;100.00;56100.38;4912792;28;49888;-69
2022/01/12 01:35:31;;;;;;;;;83.00;61.00;;;;;-142.59;100.00;56100.38;4895135;28;51839;-70
2022/01/12 01:38:01;;;;;;;;;78.00;59.75;;;;;-142.59;100.00;56100.38;4912604;28;49718;-68
2022/01/12 01:40:28;;;;;;;;;81.25;60.00;;;;;-142.59;100.00;56100.38;4912616;28;50094;-68
2022/01/12 01:43:44;;;;;;;;;69.00;54.75;;;;;-142.59;100.00;56100.38;4912390;28;49938;-68
2022/01/12 01:53:53;;;;;;;;;76.50;59.50;;;;;-142.59;100.00;56100.38;4912780;28;49883;-74
2022/01/12 01:56:19;;;;;;;;;74.00;59.50;;;;;-142.59;100.00;56100.38;4912302;28;49876;-77
2022/01/12 01:58:46;;;;;;;;;72.50;53.50;;;;;-142.59;100.00;56100.38;4912213;28;49777;-69
2022/01/12 02:01:12;;;;;;;;;81.00;62.25;;;;;-142.59;100.00;56100.38;4912193;28;49727;-68
2022/01/12 02:03:37;;;;;;;;;71.00;55.25;;;;;-142.59;100.00;56100.38;4912581;28;49612;-69
2022/01/12 02:06:05;;;;;;;;;70.75;57.25;;;;;-142.59;100.00;56100.38;4905917;28;49923;-68
2022/01/12 02:08:30;;;;;;;;;75.75;57.00;;;;;-142.59;100.00;56100.38;4912164;28;49903;-69
2022/01/12 02:10:58;;;;;;;;;76.75;58.75;;;;;-142.59;100.00;56100.38;4912650;28;49800;-68
2022/01/12 02:13:24;;;;;;;;;77.25;60.25;;;;;-142.59;100.00;56100.38;4897906;28;49789;-68
2022/01/12 02:15:51;;;;;;;;;69.00;56.75;;;;;-142.59;100.00;56100.38;4897782;28;49889;-69
2022/01/12 02:18:35;;;;;;;;;84.67;63.00;;;;;-142.59;100.00;56100.38;4898003;28;49809;-68
2022/01/12 02:40:21;;;;;;;;;78.75;56.00;;;;;-142.59;100.00;56100.38;4915011;28;49781;-68
2022/01/12 02:42:57;;;;;;;;;81.75;61.50;;;;;-142.59;100.00;56100.38;4914805;28;49839;-68
2022/01/12 02:53:41;;;;;;;;;70.00;51.75;;;;;-142.59;100.00;56100.38;4914850;28;49769;-68
2022/01/12 02:56:14;;;;;;;;;72.25;55.75;;;;;-142.59;100.00;56100.38;4914916;28;49657;-68
2022/01/12 02:58:41;;;;;;;;;69.50;55.00;;;;;-142.59;100.00;56100.38;4914555;28;49758;-68
2022/01/12 03:03:54;;;;;;;;;81.75;59.50;;;;;-142.59;100.00;56100.38;4914947;28;50011;-69
2022/01/12 03:06:25;;;;;;;;;78.25;59.25;;;;;-142.59;100.00;56100.38;4914680;28;49762;-72
2022/01/12 03:08:51;;;;;;;;;74.50;57.25;;;;;-142.59;100.00;56100.38;4914321;28;49736;-69
2022/01/12 03:11:19;;;;;;;;;74.50;57.75;;;;;-142.59;100.00;56100.38;4914539;28;49826;-71
2022/01/12 03:13:45;;;;;;;;;75.25;57.00;;;;;-142.59;100.00;56100.38;4914410;28;49944;-70
2022/01/12 03:16:18;;;;;;;;;65.50;48.75;;;;;-142.59;100.00;56100.38;4914725;28;49632;-68
2022/01/12 03:18:46;;;;;;;;;75.25;57.50;;;;;-142.59;100.00;56100.38;4897179;28;50217;-72
2022/01/12 03:21:14;;;;;;;;;80.50;61.00;;;;;-142.59;100.00;56100.38;4914323;28;49861;-75
2022/01/12 03:23:40;;;;;;;;;79.75;58.25;;;;;-142.59;100.00;56100.38;4914463;28;49944;-70
2022/01/12 03:26:07;;;;;;;;;66.00;53.50;;;;;-142.59;100.00;56100.38;4914781;28;49952;-75
2022/01/12 03:28:32;;;;;;;;;71.50;57.50;;;;;-142.59;100.00;56100.38;4913947;28;50791;-72
2022/01/12 03:31:07;;;;;;;;;78.50;60.00;;;;;-142.59;100.00;56100.38;4914170;28;49842;-70
2022/01/12 03:38:55;;;;;;;;;72.75;55.50;;;;;-142.59;100.00;56100.38;4914137;28;49845;-76
2022/01/12 03:41:21;;;;;;;;;79.50;58.00;;;;;-142.59;100.00;56100.38;4914171;28;50334;-72
2022/01/12 03:43:47;;;;;;;;;77.00;58.00;;;;;-142.59;100.00;56100.38;4913772;28;49773;-68
2022/01/12 03:46:15;;;;;;;;;71.00;58.00;;;;;-142.59;100.00;56100.38;4914368;28;50028;-74
2022/01/12 03:48:41;;;;;;;;;75.25;59.25;;;;;-142.59;100.00;56100.38;4913862;28;49884;-76
2022/01/12 03:51:07;;;;;;;;;81.25;58.00;;;;;-142.59;100.00;56100.38;4913758;28;49668;-70
2022/01/12 03:53:32;;;;;;;;;72.50;55.00;;;;;-142.59;100.00;56100.38;4914093;28;49767;-69
2022/01/12 03:55:57;;;;;;;;;73.50;56.00;;;;;-142.59;100.00;56100.38;4914278;28;49691;-69
2022/01/12 03:58:23;;;;;;;;;70.50;56.25;;;;;-142.59;100.00;56100.38;4913491;28;49845;-68
2022/01/12 04:00:48;;;;;;;;;75.00;55.25;;;;;-142.59;100.00;56100.38;4913676;28;49889;-69
2022/01/12 04:03:15;;;;;;;;;76.50;61.00;;;;;-142.59;100.00;56100.38;4913516;28;49704;-71
2022/01/12 04:08:21;;;;;;;;;76.50;55.00;;;;;-142.59;100.00;56100.38;4913748;28;50681;-75
2022/01/12 04:10:54;;;;;;;;;72.75;54.75;;;;;-142.59;100.00;56100.38;4893026;28;49831;-69
2022/01/12 04:13:22;;;;;;;;;75.50;56.00;;;;;-142.59;100.00;56100.38;4912794;28;49861;-69
2022/01/12 04:15:54;;;;;;;;;72.75;56.75;;;;;-142.59;100.00;56100.38;4913726;28;49711;-71
2022/01/12 04:18:20;;;;;;;;;73.00;54.75;;;;;-142.59;100.00;56100.38;4896113;28;50719;-70
2022/01/12 04:20:47;;;;;;;;;72.00;58.50;;;;;-142.59;100.00;56100.38;4913433;28;49702;-71
2022/01/12 04:23:17;;;;;;;;;76.00;58.50;;;;;-142.59;100.00;56100.38;4913575;28;49757;-70
2022/01/12 04:25:50;;;;;;;;;72.50;59.25;;;;;-142.59;100.00;56100.38;4913705;28;49861;-73
2022/01/12 04:28:16;;;;;;;;;65.00;47.50;;;;;-142.59;100.00;56100.38;4913151;28;50832;-68
2022/01/12 04:30:43;;;;;;;;;71.75;56.75;;;;;-142.59;100.00;56100.38;4913501;28;49765;-69
2022/01/12 04:33:09;;;;;;;;;66.50;54.75;;;;;-142.59;100.00;56100.38;4907357;28;49837;-68
2022/01/12 04:35:37;;;;;;;;;70.00;53.75;;;;;-142.59;100.00;56100.38;4913105;28;49639;-72
2022/01/12 04:38:03;;;;;;;;;71.75;54.00;;;;;-142.59;100.00;56100.38;4913093;28;49783;-69
2022/01/12 04:40:29;;;;;;;;;70.00;54.75;;;;;-142.59;100.00;56100.38;4913178;28;49820;-69
2022/01/12 04:42:56;;;;;;;;;77.75;61.00;;;;;-142.59;100.00;56100.38;4912954;28;49757;-73
2022/01/12 04:50:19;;;;;;;;;69.00;54.00;;;;;-142.59;100.00;56100.38;4913176;28;49829;-73
2022/01/12 04:52:44;;;;;;;;;69.25;54.00;;;;;-142.59;100.00;56100.38;4895815;28;49922;-69
2022/01/12 04:55:09;;;;;;;;;62.75;51.25;;;;;-142.59;100.00;56100.38;4913121;28;49725;-69
2022/01/12 04:57:35;;;;;;;;;60.50;48.50;;;;;-142.59;100.00;56100.38;4895399;28;51118;-74
2022/01/12 05:00:13;;;;;;;;;62.50;49.25;;;;;-142.59;100.00;56100.38;4912905;28;49958;-75
2022/01/12 05:08:21;;;;;;;;;68.50;51.00;;;;;-142.59;100.00;56100.38;4913011;28;50197;-68
2022/01/12 05:13:32;;;;;;;;;72.00;56.00;;;;;-142.59;100.00;56100.38;4912670;28;49719;-69
2022/01/12 05:16:01;;;;;;;;;69.50;51.50;;;;;-142.59;100.00;56100.38;4895750;28;49792;-75
2022/01/12 05:18:28;;;;;;;;;75.75;56.00;;;;;-142.59;100.00;56100.38;4912820;28;49960;-73
2022/01/12 05:20:53;;;;;;;;;70.50;52.00;;;;;-142.59;100.00;56100.38;4912738;28;49855;-70
2022/01/12 05:23:19;;;;;;;;;66.50;50.75;;;;;-142.59;100.00;56100.38;4912746;28;49845;-70
2022/01/12 05:25:47;;;;;;;;;69.00;53.00;;;;;-142.59;100.00;56100.38;4895976;28;50151;-72
2022/01/12 05:28:14;;;;;;;;;67.25;53.25;;;;;-142.59;100.00;56100.38;4906184;28;49826;-69
2022/01/12 05:30:39;;;;;;;;;66.25;48.75;;;;;-142.59;100.00;56100.38;4912587;28;49718;-72
2022/01/12 05:33:05;;;;;;;;;71.50;53.50;;;;;-142.59;100.00;56100.38;4912674;28;49921;-69
2022/01/12 05:35:33;;;;;;;;;65.25;48.00;;;;;-142.59;100.00;56100.38;4912925;28;49710;-68
2022/01/12 05:37:59;;;;;;;;;57.50;48.75;;;;;-142.59;100.00;56100.38;4912526;28;49763;-72
2022/01/12 05:40:25;;;;;;;;;74.75;57.25;;;;;-142.59;100.00;56100.38;4912590;28;49753;-69
2022/01/12 05:42:51;;;;;;;;;68.25;54.00;;;;;-142.59;100.00;56100.38;4912411;28;50002;-68
2022/01/12 05:45:19;;;;;;;;;72.75;55.50;;;;;-142.59;100.00;56100.38;4912717;28;49875;-69
2022/01/12 05:50:12;;;;;;;;;72.50;53.00;;;;;-142.59;100.00;56100.38;4915875;28;49903;-73
2022/01/12 05:52:38;;;;;;;;;70.75;54.75;;;;;-142.59;100.00;56100.38;4915911;28;50112;-77
2022/01/12 05:55:05;;;;;;;;;71.25;55.75;;;;;-142.59;100.00;56100.38;4898885;28;49991;-74
2022/01/12 05:57:32;;;;;;;;;65.75;52.75;;;;;-142.59;100.00;56100.38;4915375;28;51073;-69
2022/01/12 05:59:58;;;;;;;;;71.50;54.75;;;;;-142.59;100.00;56100.38;4915509;28;49891;-72
2022/01/12 06:02:24;;;;;;;;;73.75;55.75;;;;;-142.59;100.00;56100.38;4915891;28;49784;-74
2022/01/12 06:04:52;;;;;;;;;71.25;54.00;;;;;-142.59;100.00;56100.38;4915859;28;49719;-69
2022/01/12 06:07:18;;;;;;;;;62.00;52.00;;;;;-142.59;100.00;56100.38;4898127;28;50951;-69
2022/01/12 06:09:43;;;;;;;;;68.25;54.75;;;;;-142.59;100.00;56100.38;4898351;28;49781;-73
2022/01/12 06:12:09;;;;;;;;;62.75;49.50;;;;;-142.59;100.00;56100.38;4915305;28;49777;-70
2022/01/12 06:14:34;;;;;;;;;66.75;50.00;;;;;-142.59;100.00;56100.38;4915641;28;49941;-69
2022/01/12 06:17:00;;;;;;;;;67.00;54.00;;;;;-142.59;100.00;56100.38;4915307;28;49780;-74
2022/01/12 06:19:25;;;;;;;;;64.75;51.50;;;;;-142.59;100.00;56100.38;4915502;28;49706;-69
2022/01/12 06:21:50;;;;;;;;;72.25;55.00;;;;;-142.59;100.00;56100.38;4898284;28;49961;-70
2022/01/12 06:24:16;;;;;;;;;67.50;52.00;;;;;-142.59;100.00;56100.38;4915717;28;49717;-68
2022/01/12 06:26:43;;;;;;;;;72.50;55.50;;;;;-142.59;100.00;56100.38;4919828;28;50507;-70
2022/01/12 06:31:38;;;;;;;;;67.75;52.00;;;;;-142.59;100.00;56100.38;4919848;28;49781;-70
2022/01/12 06:34:04;;;;;;;;;72.50;56.00;;;;;-142.59;100.00;56100.38;4930964;28;49655;-70
2022/01/12 06:36:29;;;;;;;;;75.75;60.75;;;;;-142.59;100.00;56100.38;4925094;28;50447;-74
2022/01/12 06:38:55;;;;;;;;;70.25;58.75;;;;;-142.59;100.00;56100.38;4898144;28;49802;-70
2022/01/12 06:41:25;;;;;;;;;71.75;54.00;;;;;-142.59;100.00;56100.38;4921311;28;49690;-79
2022/01/12 06:43:51;;;;;;;;;75.50;58.00;;;;;-142.59;100.00;56100.38;4908239;28;49995;-70
2022/01/12 06:46:29;;;;;;;;;65.75;50.00;;;;;-142.59;100.00;56100.38;4922662;28;50409;-73
2022/01/12 06:48:55;;;;;;;;;67.00;51.25;;;;;-142.59;100.00;56100.38;4926407;28;49943;-73
2022/01/12 06:51:20;;;;;;;;;72.50;57.75;;;;;-142.59;100.00;56100.38;4917478;28;49725;-73
2022/01/12 06:53:45;;;;;;;;;66.00;54.25;;;;;-142.59;100.00;56100.38;4920224;28;49642;-74
2022/01/12 06:56:15;;;;;;;;;75.25;54.00;;;;;-142.59;100.00;56100.38;4925270;28;50815;-75
2022/01/12 06:58:41;;;;;;;;;78.00;56.50;;;;;-142.59;100.00;56100.38;4913205;28;49840;-73
2022/01/12 07:01:06;;;;;;;;;69.00;55.75;;;;;-142.59;100.00;56100.38;4927289;28;49883;-72
2022/01/12 07:03:32;;;;;;;;;73.50;55.25;;;;;-142.59;100.00;56100.38;4918488;28;49642;-71
2022/01/12 07:06:00;;;;;;;;;74.25;58.00;;;;;-142.59;100.00;56100.38;4912229;28;50673;-79
2022/01/12 07:08:25;;;;;;;;;68.00;51.50;;;;;-142.59;100.00;56100.38;4892101;28;49923;-88
2022/01/12 07:10:51;;;;;;;;;75.75;59.75;;;;;-142.59;100.00;56100.38;4921484;28;49675;-83
2022/01/12 07:13:19;;;;;;;;;77.00;59.75;;;;;-142.59;100.00;56100.38;4910880;28;49650;-81
2022/01/12 07:15:45;;;;;;;;;74.75;56.50;;;;;-142.59;100.00;56100.38;4927903;28;50471;-70
2022/01/12 07:18:10;;;;;;;;;79.50;59.25;;;;;-142.59;100.00;56100.38;4914381;28;49698;-71
2022/01/12 07:20:36;;;;;;;;;76.00;56.50;;;;;-142.59;100.00;56100.38;4917351;28;50072;-68
2022/01/12 07:23:04;;;;;;;;;75.50;56.00;;;;;-142.59;100.00;56100.38;4917853;28;49598;-72
2022/01/12 07:25:29;;;;;;;;;71.00;53.75;;;;;-142.59;100.00;56100.38;4900072;28;52225;-68
2022/01/12 07:27:55;;;;;;;;;69.75;53.25;;;;;-142.59;100.00;56100.38;4919768;28;49904;-67
2022/01/12 07:30:22;;;;;;;;;76.50;57.75;;;;;-142.59;100.00;56100.38;4914598;28;49911;-65
2022/01/12 07:32:48;;;;;;;;;68.75;54.25;;;;;-142.59;100.00;56100.38;4923272;28;49790;-67
2022/01/12 07:35:13;;;;;;;;;71.25;57.50;;;;;-142.59;100.00;56100.38;4937717;28;50291;-75
2022/01/12 07:37:38;;;;;;;;;68.50;52.75;;;;;-142.59;100.00;56100.38;4914371;28;49897;-75
2022/01/12 07:40:05;;;;;;;;;71.75;57.00;;;;;-142.59;100.00;56100.38;4926493;28;49885;-75
2022/01/12 07:42:30;;;;;;;;;79.25;58.00;;;;;-142.59;100.00;56100.38;4916194;28;50329;-71
2022/01/12 07:45:00;;;;;;;;;64.75;52.75;;;;;-142.59;100.00;56100.38;4920495;28;49805;-74
2022/01/12 07:47:27;;;;;;;;;72.75;56.50;;;;;-142.59;100.00;56100.38;4915780;28;49885;-73
2022/01/12 07:49:53;;;;;;;;;75.50;60.00;;;;;-142.59;100.00;56100.38;4922550;28;49754;-72
2022/01/12 07:52:18;;;;;;;;;72.75;56.75;;;;;-142.59;100.00;56100.38;4925804;28;49642;-74
2022/01/12 07:54:44;;;;;;;;;78.50;60.25;;;;;-142.59;100.00;56100.38;4920895;28;51007;-71
2022/01/12 07:57:09;;;;;;;;;77.00;58.25;;;;;-142.59;100.00;56100.38;4923787;28;49770;-67
2022/01/12 07:59:34;;;;;;;;;79.75;57.75;;;;;-142.59;100.00;56100.38;4921473;28;49705;-65
2022/01/12 08:02:00;;;;;;;;;75.25;54.75;;;;;-142.59;100.00;56100.38;4914017;28;49826;-65
2022/01/12 08:04:25;;;;;;;;;67.50;54.00;;;;;-142.59;100.00;56100.38;4913807;28;50105;-65
2022/01/12 08:06:50;;;;;;;;;69.75;54.25;;;;;-142.59;100.00;56100.38;4913769;28;49890;-66
2022/01/12 08:09:16;;;;;;;;;73.00;54.50;;;;;-142.59;100.00;56100.38;4915212;28;50005;-66
2022/01/12 08:11:41;;;;;;;;;75.75;55.25;;;;;-142.59;100.00;56100.38;4912590;28;50018;-66
2022/01/12 08:14:06;;;;;;;;;78.50;57.00;;;;;-142.59;100.00;56100.38;4913035;28;51057;-65
2022/01/12 08:16:32;;;;;;;;;52.25;38.50;;;;;-142.59;100.00;56100.38;4917924;28;49720;-71
2022/01/12 08:18:57;;;;;;;;;64.75;51.00;;;;;-142.59;100.00;56100.38;4915609;28;49874;-69
2022/01/12 08:21:24;;;;;;;;;75.75;56.25;;;;;-142.59;100.00;56100.38;4913781;28;49629;-65
2022/01/12 08:23:49;;;;;;;;;73.75;55.00;;;;;-142.59;100.00;56100.38;4913011;28;50873;-64
2022/01/12 08:26:14;;;;;;;;;70.00;56.25;;;;;-142.59;100.00;56100.38;4896109;28;50073;-64
2022/01/12 08:28:40;;;;;;;;;65.25;51.75;;;;;-142.59;100.00;56100.38;4913808;28;49962;-67
2022/01/12 08:31:05;;;;;;;;;78.50;58.50;;;;;-142.59;100.00;56100.38;4914943;28;49868;-64
2022/01/12 08:33:32;;;;;;;;;84.25;62.00;;;;;-142.59;100.00;56100.38;4916308;28;50889;-65
2022/01/12 08:35:57;;;;;;;;;77.00;58.50;;;;;-142.59;100.00;56100.38;4911943;28;50172;-63
2022/01/12 08:38:23;;;;;;;;;73.00;56.50;;;;;-142.59;100.00;56100.38;4895923;28;49807;-63
2022/01/12 08:40:48;;;;;;;;;69.50;56.50;;;;;-142.59;100.00;56100.38;4913360;28;49592;-63
2022/01/12 08:43:14;;;;;;;;;74.75;56.75;;;;;-142.59;100.00;56100.38;4895625;28;51559;-65
2022/01/12 08:45:39;;;;;;;;;66.25;53.50;;;;;-142.59;100.00;56100.38;4913254;28;49850;-64
2022/01/12 08:48:05;;;;;;;;;70.00;54.25;;;;;-142.59;100.00;56100.38;4913158;28;49759;-63
2022/01/12 08:50:30;;;;;;;;;74.00;57.00;;;;;-142.59;100.00;56100.38;4913309;28;49955;-63
2022/01/12 08:52:55;;;;;;;;;67.00;52.00;;;;;-142.59;100.00;56100.38;4895550;28;51458;-64
2022/01/12 08:55:22;;;;;;;;;71.00;53.50;;;;;-142.59;100.00;56100.38;4895732;28;49759;-63
2022/01/12 08:57:49;;;;;;;;;74.75;56.75;;;;;-142.59;100.00;56100.38;4913101;28;49847;-64
2022/01/12 09:00:15;;;;;;;;;73.75;54.25;;;;;-142.59;100.00;56100.38;4913211;28;50044;-63
2022/01/12 09:02:41;;;;;;;;;68.00;52.00;;;;;-142.59;100.00;56100.38;4912960;28;50970;-63
2022/01/12 09:05:07;;;;;;;;;71.75;56.25;;;;;-142.59;100.00;56100.38;4895464;28;49706;-63
2022/01/12 09:07:34;;;;;;;;;74.75;55.75;;;;;-142.59;100.00;56100.38;4913130;28;49780;-64
2022/01/12 09:09:59;;;;;;;;;69.75;54.25;;;;;-142.59;100.00;56100.38;4913074;28;50085;-64
2022/01/12 09:12:26;;;;;;;;;69.50;51.25;;;;;-142.59;100.00;56100.38;4912342;28;50081;-63
2022/01/12 09:14:53;;;;;;;;;69.50;53.50;;;;;-142.59;100.00;56100.38;4912713;28;50018;-63
2022/01/12 09:17:19;;;;;;;;;74.00;57.00;;;;;-142.59;100.00;56100.38;4912847;28;49824;-66
2022/01/12 09:19:46;;;;;;;;;71.25;56.75;;;;;-142.59;100.00;56100.38;4913009;28;49837;-64
2022/01/12 09:22:12;;;;;;;;;71.25;56.25;;;;;-142.59;100.00;56100.38;4912694;28;50038;-65
2022/01/12 09:24:38;;;;;;;;;66.25;54.25;;;;;-142.59;100.00;56100.38;4912553;28;49866;-64
2022/01/12 09:27:04;;;;;;;;;73.25;57.50;;;;;-142.59;100.00;56100.38;4895402;28;50127;-64
2022/01/12 09:29:29;;;;;;;;;70.00;53.50;;;;;-142.59;100.00;56100.38;4912732;28;49880;-62
2022/01/12 09:31:54;;;;;;;;;69.00;53.25;;;;;-142.59;100.00;56100.38;4912396;28;50794;-63
2022/01/12 09:34:20;;;;;;;;;63.50;51.25;;;;;-142.59;100.00;56100.38;4912696;28;49692;-69
2022/01/12 09:36:45;;;;;;;;;67.50;48.75;;;;;-142.59;100.00;56100.38;4912820;28;49879;-63
2022/01/12 09:39:11;;;;;;;;;70.75;53.75;;;;;-142.59;100.00;56100.38;4912860;28;50022;-72
2022/01/12 09:41:36;;;;;;;;;73.50;55.25;;;;;-142.59;100.00;56100.38;4912308;28;50304;-68
2022/01/12 09:44:03;;;;;;;;;72.25;57.50;;;;;-142.59;100.00;56100.38;4912422;28;49886;-68
2022/01/12 09:46:28;;;;;;;;;69.00;54.25;;;;;-142.59;100.00;56100.38;4896050;28;49743;-70
2022/01/12 09:48:56;;;;;;;;;67.25;50.00;;;;;-142.59;100.00;56100.38;4894945;28;49802;-70
2022/01/12 09:51:22;;;;;;;;;66.75;52.00;;;;;-142.59;100.00;56100.38;4912174;28;50763;-70
2022/01/12 09:53:49;;;;;;;;;72.00;55.00;;;;;-142.59;100.00;56100.38;4912503;28;49602;-70
2022/01/12 09:56:17;;;;;;;;;74.25;54.25;;;;;-142.59;100.00;56100.38;4912441;28;50126;-68
2022/01/12 09:58:44;;;;;;;;;72.25;57.00;;;;;-142.59;100.00;56100.38;4912696;28;49982;-71
2022/01/12 10:01:09;;;;;;;;;77.25;60.50;;;;;-142.59;100.00;56100.38;4911967;28;50390;-68
2022/01/12 10:03:36;;;;;;;;;75.00;58.75;;;;;-142.59;100.00;56100.38;4912366;28;49906;-67
2022/01/12 10:06:13;;;;;;;;;67.50;54.25;;;;;-142.59;100.00;56100.38;4912397;28;49942;-67
2022/01/12 10:08:38;;;;;;;;;69.00;54.75;;;;;-142.59;100.00;56100.38;4912571;28;50124;-70
2022/01/12 10:11:05;;;;;;;;;69.75;54.75;;;;;-142.59;100.00;56100.38;4911936;28;49955;-69
2022/01/12 10:13:31;;;;;;;;;61.75;50.25;;;;;-142.59;100.00;56100.38;4912290;28;49959;-70
2022/01/12 10:15:57;;;;;;;;;65.25;52.75;;;;;-142.59;100.00;56100.38;4912212;28;49897;-69
2022/01/12 10:18:23;;;;;;;;;75.50;57.25;;;;;-142.59;100.00;56100.38;4912110;28;49741;-64
2022/01/12 10:20:49;;;;;;;;;71.50;54.75;;;;;-142.59;100.00;56100.38;4911986;28;49799;-70
2022/01/12 10:23:15;;;;;;;;;65.50;53.50;;;;;-142.59;100.00;56100.38;4912363;28;50052;-69
2022/01/12 10:25:46;;;;;;;;;62.75;51.00;;;;;-142.59;100.00;56100.38;4911924;28;49750;-71
2022/01/12 10:28:23;;;;;;;;;70.75;55.50;;;;;-142.59;100.00;56100.38;4912008;28;49717;-63
2022/01/12 10:30:53;;;;;;;;;67.00;52.25;;;;;-142.59;100.00;56100.38;4911705;28;50688;-65
2022/01/12 10:33:19;;;;;;;;;72.00;56.00;;;;;-142.59;100.00;56100.38;4914146;28;49926;-61
2022/01/12 10:35:48;;;;;;;;;63.25;51.25;;;;;-142.59;100.00;56100.38;4915287;28;49908;-62
2022/01/12 10:38:17;;;;;;;;;61.50;49.50;;;;;-142.59;100.00;56100.38;4897822;28;49680;-62
2022/01/12 10:40:51;;;;;;;;;64.00;50.75;;;;;-142.59;100.00;56100.38;4914783;28;50759;-64
2022/01/12 10:43:36;;;;;;;;;71.50;55.50;;;;;-142.59;100.00;56100.38;4914880;28;49740;-61
2022/01/12 10:46:10;;;;;;;;;68.50;51.00;;;;;-142.59;100.00;56100.38;4915013;28;49921;-61
2022/01/12 10:48:51;;;;;;;;;64.50;52.25;;;;;-142.59;100.00;56100.38;4897840;28;50224;-61
2022/01/12 10:51:22;;;;;;;;;70.75;57.25;;;;;-142.59;100.00;56100.38;4915700;28;49852;-60
2022/01/12 10:53:50;;;;;;;;;66.00;54.00;;;;;-142.59;100.00;56100.38;4914914;28;49647;-66
2022/01/12 10:56:21;;;;;;;;;66.75;53.50;;;;;-142.59;100.00;56100.38;4897276;28;49847;-63
2022/01/12 10:58:48;;;;;;;;;72.50;57.25;;;;;-142.59;100.00;56100.38;4914966;28;49669;-66
2022/01/12 11:01:16;;;;;;;;;64.50;52.25;;;;;-142.59;100.00;56100.38;4914301;28;51323;-63
2022/01/12 11:03:42;;;;;;;;;66.00;48.75;;;;;-142.59;100.00;56100.38;4914776;28;50086;-67
2022/01/12 11:06:08;;;;;;;;;72.00;55.75;;;;;-142.59;100.00;56100.38;4914433;28;50012;-66
2022/01/12 11:08:34;;;;;;;;;67.25;50.25;;;;;-142.59;100.00;56100.38;4914931;28;49940;-65
2022/01/12 11:11:00;;;;;;;;;63.50;49.75;;;;;-142.59;100.00;56100.38;4914516;28;50844;-66
2022/01/12 11:13:28;;;;;;;;;68.00;51.25;;;;;-142.59;100.00;56100.38;4914144;28;49725;-63
2022/01/12 11:15:54;;;;;;;;;65.00;52.75;;;;;-142.59;100.00;56100.38;4897398;28;49808;-64
2022/01/12 11:18:25;;;;;;;;;69.75;55.75;;;;;-142.59;100.00;56100.38;4914751;28;49656;-64
2022/01/12 11:20:53;;;;;;;;;70.25;50.75;;;;;-142.59;100.00;56100.38;4896808;28;51744;-64
2022/01/12 11:23:20;;;;;;;;;70.75;55.00;;;;;-142.59;100.00;56100.38;4914669;28;49866;-64
2022/01/12 11:25:51;;;;;;;;;79.75;60.25;;;;;-142.59;100.00;56100.38;4914404;28;50101;-65
2022/01/12 11:28:25;;;;;;;;;82.00;66.00;;;;;-142.59;100.00;56100.38;4914060;28;50099;-64
2022/01/12 11:30:51;;;;;;;;;89.67;68.33;;;;;-142.59;100.00;56100.38;4914139;28;50929;-65
2022/01/12 11:33:19;;;;;;;;;71.00;56.00;;;;;-142.59;100.00;56100.38;4915133;28;49748;-67
2022/01/12 11:35:48;;;;;;;;;64.50;54.25;;;;;-142.59;100.00;56100.38;4914372;28;49829;-66
2022/01/12 11:38:31;;;;;;;;;63.50;52.00;;;;;-142.59;100.00;56100.38;4914444;28;49816;-69
2022/01/12 11:41:10;;;;;;;;;70.75;54.75;;;;;-142.59;100.00;56100.38;4913962;28;50016;-67
2022/01/12 11:43:46;;;;;;;;;70.50;54.00;;;;;-142.59;100.00;56100.38;4913208;28;49821;-67
2022/01/12 11:46:15;;;;;;;;;69.00;53.75;;;;;-142.59;100.00;56100.38;4914191;28;49829;-67
2022/01/12 11:48:44;;;;;;;;;66.75;53.75;;;;;-142.59;100.00;56100.38;4897070;28;49847;-65
2022/01/12 11:51:10;;;;;;;;;63.00;50.00;;;;;-142.59;100.00;56100.38;4913649;28;49884;-67
2022/01/12 11:53:54;;;;;;;;;73.50;55.75;;;;;-142.59;100.00;56100.38;4896621;28;49738;-64
2022/01/12 11:56:25;;;;;;;;;76.50;58.75;;;;;-142.59;100.00;56100.38;4910002;28;50011;-64
2022/01/12 11:58:59;;;;;;;;;71.00;56.00;;;;;-142.59;100.00;56100.38;4914086;28;49747;-64
2022/01/12 12:01:44;;;;;;;;;67.25;53.75;;;;;-142.59;100.00;56100.38;4913126;28;51269;-64
2022/01/12 12:04:19;;;;;;;;;74.75;56.75;;;;;-142.59;100.00;56100.38;4913860;28;49701;-64
2022/01/12 12:06:45;;;;;;;;;66.50;55.50;;;;;-142.59;100.00;56100.38;4913697;28;49804;-62
2022/01/12 12:09:13;;;;;;;;;71.50;54.25;;;;;-142.59;100.00;56100.38;4914233;28;49815;-64
2022/01/12 12:11:38;;;;;;;;;70.50;55.75;;;;;-142.59;100.00;56100.38;4895576;28;49885;-64
2022/01/12 12:14:08;;;;;;;;;72.00;54.75;;;;;-142.59;100.00;56100.38;4913538;28;49799;-66